Terminal Aerodrome Forecast
Issued by NWS Green Bay, WI

Home | Current Version | Previous Version | Graphics & Text | Print | Product List | Glossary On
Versions: 1 2 3 4 5 6 7 8 9 10 11 12 13 14 15 16 17 18 19 20 21 22 23 24 25 26 27 28 29 30 31 32 33 34 35 36 37 38 39 40 41 42 43 44
000
FTUS43 KGRB 221300 AAA
TAFGRB
TAF AMD
KGRB 221352Z 2214/2312 15009KT 4SM BR BKN015 OVC025
      TEMPO 2214/2217 2SM -RASN BR
     FM221700 12009KT P6SM SCT025 OVC040
     FM222000 10012G20KT P6SM SCT015 OVC025
      TEMPO 2220/2224 4SM -RASN BKN015
     FM230000 07013G20KT 4SM -RASN BKN015 OVC022
      TEMPO 2300/2304 2SM -SN OVC010
     FM230800 05015G23KT 2SM RA BR OVC008=

USA.gov is the U.S. government's official web portal to all federal, state and local government web resources and services.